sensor_id;sensor_type;location;lat;lon;timestamp;noise_LAeq;noise_LA_min;noise_LA_max;noise_LA01;noise_LA95
72686;Laerm;61365;52.162;4.500;2023-08-31T00:00:40;51.22;31.38;66.99;;
72686;Laerm;61365;52.162;4.500;2023-08-31T00:03:07;51.47;31.47;66.94;;
72686;Laerm;61365;52.162;4.500;2023-08-31T00:05:37;51.24;31.35;66.60;;
72686;Laerm;61365;52.162;4.500;2023-08-31T00:08:05;51.34;31.38;66.74;;
72686;Laerm;61365;52.162;4.500;2023-08-31T00:10:33;51.15;31.44;66.85;;
72686;Laerm;61365;52.162;4.500;2023-08-31T00:12:59;51.14;31.30;66.42;;
72686;Laerm;61365;52.162;4.500;2023-08-31T00:15:25;50.88;31.23;66.36;;
72686;Laerm;61365;52.162;4.500;2023-08-31T00:17:51;50.97;31.36;66.36;;
72686;Laerm;61365;52.162;4.500;2023-08-31T00:20:17;50.93;31.37;68.67;;
72686;Laerm;61365;52.162;4.500;2023-08-31T00:22:43;50.57;31.51;66.55;;
72686;Laerm;61365;52.162;4.500;2023-08-31T00:25:09;50.95;31.37;66.50;;
72686;Laerm;61365;52.162;4.500;2023-08-31T00:27:35;51.37;30.82;66.80;;
72686;Laerm;61365;52.162;4.500;2023-08-31T00:30:07;50.79;31.17;66.72;;
72686;Laerm;61365;52.162;4.500;2023-08-31T00:32:37;51.17;31.12;68.41;;
72686;Laerm;61365;52.162;4.500;2023-08-31T00:35:05;50.62;31.21;66.60;;
72686;Laerm;61365;52.162;4.500;2023-08-31T00:37:31;50.82;31.12;66.53;;
72686;Laerm;61365;52.162;4.500;2023-08-31T00:39:57;51.11;31.38;65.39;;
72686;Laerm;61365;52.162;4.500;2023-08-31T00:42:25;51.07;31.15;66.54;;
72686;Laerm;61365;52.162;4.500;2023-08-31T00:44:51;51.12;31.13;66.79;;
72686;Laerm;61365;52.162;4.500;2023-08-31T00:47:19;51.08;31.39;66.66;;
72686;Laerm;61365;52.162;4.500;2023-08-31T00:49:45;51.78;31.37;67.12;;
72686;Laerm;61365;52.162;4.500;2023-08-31T00:52:11;51.34;31.10;66.41;;
72686;Laerm;61365;52.162;4.500;2023-08-31T00:54:37;51.49;31.38;66.63;;
72686;Laerm;61365;52.162;4.500;2023-08-31T00:57:04;50.84;31.39;66.51;;
72686;Laerm;61365;52.162;4.500;2023-08-31T00:59:30;51.27;31.33;66.95;;
72686;Laerm;61365;52.162;4.500;2023-08-31T01:02:07;51.64;31.51;66.94;;
72686;Laerm;61365;52.162;4.500;2023-08-31T01:04:59;51.71;31.23;69.10;;
72686;Laerm;61365;52.162;4.500;2023-08-31T01:07:53;51.01;31.27;66.49;;
72686;Laerm;61365;52.162;4.500;2023-08-31T01:10:34;51.22;31.41;66.62;;
72686;Laerm;61365;52.162;4.500;2023-08-31T01:13:24;51.53;31.17;66.75;;
72686;Laerm;61365;52.162;4.500;2023-08-31T01:15:54;51.14;31.24;66.81;;
72686;Laerm;61365;52.162;4.500;2023-08-31T01:18:23;51.20;31.38;66.55;;
72686;Laerm;61365;52.162;4.500;2023-08-31T01:21:02;51.11;31.25;66.91;;
72686;Laerm;61365;52.162;4.500;2023-08-31T01:23:51;50.92;31.24;66.05;;
72686;Laerm;61365;52.162;4.500;2023-08-31T01:26:20;51.49;31.25;66.68;;
72686;Laerm;61365;52.162;4.500;2023-08-31T01:28:48;51.65;31.12;66.64;;
72686;Laerm;61365;52.162;4.500;2023-08-31T01:31:15;51.57;31.30;66.65;;
72686;Laerm;61365;52.162;4.500;2023-08-31T01:33:41;51.47;31.30;66.67;;
72686;Laerm;61365;52.162;4.500;2023-08-31T01:36:24;51.48;31.29;66.53;;
72686;Laerm;61365;52.162;4.500;2023-08-31T01:39:05;51.33;31.49;66.47;;
72686;Laerm;61365;52.162;4.500;2023-08-31T01:41:34;51.70;31.51;66.44;;
72686;Laerm;61365;52.162;4.500;2023-08-31T01:44:05;51.23;31.34;66.86;;
72686;Laerm;61365;52.162;4.500;2023-08-31T01:46:34;51.33;31.16;66.54;;
72686;Laerm;61365;52.162;4.500;2023-08-31T01:49:00;51.23;31.31;66.74;;
72686;Laerm;61365;52.162;4.500;2023-08-31T01:51:27;50.98;31.35;66.68;;
72686;Laerm;61365;52.162;4.500;2023-08-31T01:53:53;51.51;31.43;66.97;;
72686;Laerm;61365;52.162;4.500;2023-08-31T01:56:19;51.51;31.54;66.79;;
72686;Laerm;61365;52.162;4.500;2023-08-31T01:58:47;51.21;31.38;66.78;;
72686;Laerm;61365;52.162;4.500;2023-08-31T02:01:13;51.24;31.27;66.14;;
72686;Laerm;61365;52.162;4.500;2023-08-31T02:03:39;50.88;31.46;66.89;;
72686;Laerm;61365;52.162;4.500;2023-08-31T02:06:05;51.23;31.21;66.79;;
72686;Laerm;61365;52.162;4.500;2023-08-31T02:08:32;50.99;31.41;65.99;;
72686;Laerm;61365;52.162;4.500;2023-08-31T02:10:58;50.86;31.14;66.74;;
72686;Laerm;61365;52.162;4.500;2023-08-31T02:13:24;50.81;31.40;66.71;;
72686;Laerm;61365;52.162;4.500;2023-08-31T02:15:53;51.02;31.44;66.02;;
72686;Laerm;61365;52.162;4.500;2023-08-31T02:18:19;51.19;31.25;66.47;;
72686;Laerm;61365;52.162;4.500;2023-08-31T02:20:45;50.43;31.10;66.76;;
72686;Laerm;61365;52.162;4.500;2023-08-31T02:23:12;50.81;31.53;66.59;;
72686;Laerm;61365;52.162;4.500;2023-08-31T02:25:38;50.73;31.15;66.34;;
72686;Laerm;61365;52.162;4.500;2023-08-31T02:28:04;51.25;31.37;65.26;;
72686;Laerm;61365;52.162;4.500;2023-08-31T02:30:30;51.28;31.17;66.89;;
72686;Laerm;61365;52.162;4.500;2023-08-31T02:32:56;50.89;31.34;66.72;;
72686;Laerm;61365;52.162;4.500;2023-08-31T02:35:22;51.42;31.38;66.55;;
72686;Laerm;61365;52.162;4.500;2023-08-31T02:37:49;51.26;31.33;66.71;;
72686;Laerm;61365;52.162;4.500;2023-08-31T02:40:15;51.32;31.26;66.82;;
72686;Laerm;61365;52.162;4.500;2023-08-31T02:42:41;51.36;31.40;66.36;;
72686;Laerm;61365;52.162;4.500;2023-08-31T02:45:08;51.56;31.38;66.65;;
72686;Laerm;61365;52.162;4.500;2023-08-31T02:47:34;51.19;31.13;66.39;;
72686;Laerm;61365;52.162;4.500;2023-08-31T02:50:00;51.66;31.26;66.95;;
72686;Laerm;61365;52.162;4.500;2023-08-31T02:52:26;51.64;31.33;66.84;;
72686;Laerm;61365;52.162;4.500;2023-08-31T02:54:52;51.91;31.30;69.06;;
72686;Laerm;61365;52.162;4.500;2023-08-31T02:57:20;51.79;31.10;66.91;;
72686;Laerm;61365;52.162;4.500;2023-08-31T02:59:50;51.67;31.45;66.81;;
72686;Laerm;61365;52.162;4.500;2023-08-31T03:02:16;51.73;31.21;66.90;;
72686;Laerm;61365;52.162;4.500;2023-08-31T03:04:42;51.15;31.19;66.93;;
72686;Laerm;61365;52.162;4.500;2023-08-31T03:07:09;51.78;31.28;67.01;;
72686;Laerm;61365;52.162;4.500;2023-08-31T03:09:39;51.33;31.37;66.69;;
72686;Laerm;61365;52.162;4.500;2023-08-31T03:12:06;51.59;31.12;67.70;;
72686;Laerm;61365;52.162;4.500;2023-08-31T03:14:32;52.01;31.39;67.32;;
72686;Laerm;61365;52.162;4.500;2023-08-31T03:16:58;51.77;31.43;64.99;;
72686;Laerm;61365;52.162;4.500;2023-08-31T03:19:24;51.59;30.80;67.11;;
72686;Laerm;61365;52.162;4.500;2023-08-31T03:21:50;52.08;31.06;67.39;;
72686;Laerm;61365;52.162;4.500;2023-08-31T03:24:16;51.97;30.78;66.42;;
72686;Laerm;61365;52.162;4.500;2023-08-31T03:26:43;51.97;31.27;67.05;;
72686;Laerm;61365;52.162;4.500;2023-08-31T03:29:09;51.65;30.95;66.87;;
72686;Laerm;61365;52.162;4.500;2023-08-31T03:31:35;51.89;31.36;66.93;;
72686;Laerm;61365;52.162;4.500;2023-08-31T03:34:01;51.75;30.94;66.51;;
72686;Laerm;61365;52.162;4.500;2023-08-31T03:36:27;51.81;31.08;68.89;;
72686;Laerm;61365;52.162;4.500;2023-08-31T03:38:53;52.17;31.14;66.78;;
72686;Laerm;61365;52.162;4.500;2023-08-31T03:41:19;52.37;30.98;67.61;;
72686;Laerm;61365;52.162;4.500;2023-08-31T03:43:45;51.65;31.03;66.85;;
72686;Laerm;61365;52.162;4.500;2023-08-31T03:46:11;52.05;31.01;67.08;;
72686;Laerm;61365;52.162;4.500;2023-08-31T03:48:37;51.65;31.21;66.82;;
72686;Laerm;61365;52.162;4.500;2023-08-31T03:51:03;51.63;31.06;68.50;;
72686;Laerm;61365;52.162;4.500;2023-08-31T03:53:29;51.50;31.05;67.14;;
72686;Laerm;61365;52.162;4.500;2023-08-31T03:55:56;51.87;31.13;66.97;;
72686;Laerm;61365;52.162;4.500;2023-08-31T03:58:22;52.15;31.25;67.05;;
72686;Laerm;61365;52.162;4.500;2023-08-31T04:00:51;51.76;31.18;66.30;;
72686;Laerm;61365;52.162;4.500;2023-08-31T04:03:17;51.70;31.17;66.84;;
72686;Laerm;61365;52.162;4.500;2023-08-31T04:05:43;51.86;31.34;66.81;;
72686;Laerm;61365;52.162;4.500;2023-08-31T04:08:09;51.75;30.85;66.36;;
72686;Laerm;61365;52.162;4.500;2023-08-31T04:10:35;51.92;31.26;66.69;;
72686;Laerm;61365;52.162;4.500;2023-08-31T04:13:01;51.73;31.13;66.61;;
72686;Laerm;61365;52.162;4.500;2023-08-31T04:15:27;50.95;31.16;66.55;;
72686;Laerm;61365;52.162;4.500;2023-08-31T04:17:54;51.06;31.19;64.86;;
72686;Laerm;61365;52.162;4.500;2023-08-31T04:20:20;50.72;30.66;66.77;;
72686;Laerm;61365;52.162;4.500;2023-08-31T04:22:46;50.84;31.09;66.74;;
72686;Laerm;61365;52.162;4.500;2023-08-31T04:25:12;50.84;31.30;65.17;;
72686;Laerm;61365;52.162;4.500;2023-08-31T04:27:38;50.56;31.06;65.72;;
72686;Laerm;61365;52.162;4.500;2023-08-31T04:30:06;50.96;31.26;66.63;;
72686;Laerm;61365;52.162;4.500;2023-08-31T04:32:33;51.05;31.16;66.93;;
72686;Laerm;61365;52.162;4.500;2023-08-31T04:34:59;50.80;30.81;67.33;;
72686;Laerm;61365;52.162;4.500;2023-08-31T04:37:25;50.47;31.11;66.47;;
72686;Laerm;61365;52.162;4.500;2023-08-31T04:39:51;50.32;31.12;66.04;;
72686;Laerm;61365;52.162;4.500;2023-08-31T04:42:17;43.16;31.37;64.92;;
72686;Laerm;61365;52.162;4.500;2023-08-31T04:44:43;50.26;31.09;64.21;;
72686;Laerm;61365;52.162;4.500;2023-08-31T04:47:10;50.57;30.98;66.58;;
72686;Laerm;61365;52.162;4.500;2023-08-31T04:49:36;50.03;31.23;66.62;;
72686;Laerm;61365;52.162;4.500;2023-08-31T04:52:03;50.94;31.26;66.68;;
72686;Laerm;61365;52.162;4.500;2023-08-31T04:54:29;50.01;31.24;66.80;;
72686;Laerm;61365;52.162;4.500;2023-08-31T04:56:55;50.64;30.93;66.46;;
72686;Laerm;61365;52.162;4.500;2023-08-31T04:59:21;50.40;31.18;66.14;;
72686;Laerm;61365;52.162;4.500;2023-08-31T05:01:47;50.24;31.04;64.93;;
72686;Laerm;61365;52.162;4.500;2023-08-31T05:04:13;50.18;31.24;66.53;;
72686;Laerm;61365;52.162;4.500;2023-08-31T05:06:39;49.98;30.83;65.92;;
72686;Laerm;61365;52.162;4.500;2023-08-31T05:09:05;49.39;30.97;66.59;;
72686;Laerm;61365;52.162;4.500;2023-08-31T05:11:32;50.32;31.35;66.75;;
72686;Laerm;61365;52.162;4.500;2023-08-31T05:13:58;49.93;31.00;64.20;;
72686;Laerm;61365;52.162;4.500;2023-08-31T05:16:24;50.03;31.23;66.29;;
72686;Laerm;61365;52.162;4.500;2023-08-31T05:18:50;49.96;31.09;66.59;;
72686;Laerm;61365;52.162;4.500;2023-08-31T05:21:16;50.20;31.07;66.55;;
72686;Laerm;61365;52.162;4.500;2023-08-31T05:23:42;49.64;31.07;64.48;;
72686;Laerm;61365;52.162;4.500;2023-08-31T05:26:08;49.67;31.00;66.41;;
72686;Laerm;61365;52.162;4.500;2023-08-31T05:28:34;49.79;31.20;66.45;;
72686;Laerm;61365;52.162;4.500;2023-08-31T05:31:01;50.41;31.00;66.52;;
72686;Laerm;61365;52.162;4.500;2023-08-31T05:33:29;50.10;31.18;66.98;;
72686;Laerm;61365;52.162;4.500;2023-08-31T05:36:02;50.40;31.28;66.35;;
72686;Laerm;61365;52.162;4.500;2023-08-31T05:38:31;50.51;31.01;66.61;;
72686;Laerm;61365;52.162;4.500;2023-08-31T05:41:07;50.12;30.98;66.57;;
72686;Laerm;61365;52.162;4.500;2023-08-31T05:43:34;49.88;31.28;66.11;;
72686;Laerm;61365;52.162;4.500;2023-08-31T05:46:01;50.36;31.03;66.76;;
72686;Laerm;61365;52.162;4.500;2023-08-31T05:48:27;49.74;30.92;66.35;;
72686;Laerm;61365;52.162;4.500;2023-08-31T05:50:54;49.96;31.22;66.11;;
72686;Laerm;61365;52.162;4.500;2023-08-31T05:53:20;49.96;31.50;66.31;;
72686;Laerm;61365;52.162;4.500;2023-08-31T05:55:47;49.43;31.30;66.05;;
72686;Laerm;61365;52.162;4.500;2023-08-31T05:58:13;50.18;30.93;64.44;;
72686;Laerm;61365;52.162;4.500;2023-08-31T06:00:42;50.24;30.74;67.09;;
72686;Laerm;61365;52.162;4.500;2023-08-31T06:03:08;50.23;31.05;66.36;;
72686;Laerm;61365;52.162;4.500;2023-08-31T06:05:36;50.26;31.02;66.44;;
72686;Laerm;61365;52.162;4.500;2023-08-31T06:08:02;49.75;31.01;66.46;;
72686;Laerm;61365;52.162;4.500;2023-08-31T06:10:28;49.06;30.64;65.07;;
72686;Laerm;61365;52.162;4.500;2023-08-31T06:12:55;49.74;30.99;63.81;;
72686;Laerm;61365;52.162;4.500;2023-08-31T06:15:21;49.73;31.15;65.25;;
72686;Laerm;61365;52.162;4.500;2023-08-31T06:17:47;49.19;31.21;66.00;;
72686;Laerm;61365;52.162;4.500;2023-08-31T06:20:13;49.69;30.93;65.74;;
72686;Laerm;61365;52.162;4.500;2023-08-31T06:22:39;49.48;31.12;65.15;;
72686;Laerm;61365;52.162;4.500;2023-08-31T06:25:07;49.04;30.99;66.18;;
72686;Laerm;61365;52.162;4.500;2023-08-31T06:27:34;49.81;31.12;66.37;;
72686;Laerm;61365;52.162;4.500;2023-08-31T06:30:01;49.57;30.97;67.01;;
72686;Laerm;61365;52.162;4.500;2023-08-31T06:32:27;49.22;31.21;66.20;;
72686;Laerm;61365;52.162;4.500;2023-08-31T06:34:53;49.32;31.29;66.23;;
72686;Laerm;61365;52.162;4.500;2023-08-31T06:37:19;48.67;31.27;64.23;;
72686;Laerm;61365;52.162;4.500;2023-08-31T06:39:46;48.86;31.20;66.66;;
72686;Laerm;61365;52.162;4.500;2023-08-31T06:42:12;49.14;31.09;63.58;;
72686;Laerm;61365;52.162;4.500;2023-08-31T06:44:38;49.11;31.23;66.33;;
72686;Laerm;61365;52.162;4.500;2023-08-31T06:47:04;49.06;31.32;66.25;;
72686;Laerm;61365;52.162;4.500;2023-08-31T06:49:30;49.61;31.37;66.78;;
72686;Laerm;61365;52.162;4.500;2023-08-31T06:52:00;49.84;31.23;64.67;;
72686;Laerm;61365;52.162;4.500;2023-08-31T06:54:26;50.26;31.20;66.46;;
72686;Laerm;61365;52.162;4.500;2023-08-31T06:56:52;50.03;31.02;66.23;;
72686;Laerm;61365;52.162;4.500;2023-08-31T06:59:18;50.71;30.99;66.91;;
72686;Laerm;61365;52.162;4.500;2023-08-31T07:01:44;51.14;31.20;66.75;;
72686;Laerm;61365;52.162;4.500;2023-08-31T07:04:11;51.00;31.17;66.58;;
72686;Laerm;61365;52.162;4.500;2023-08-31T07:06:37;51.06;31.18;65.49;;
72686;Laerm;61365;52.162;4.500;2023-08-31T07:09:03;50.91;31.16;66.90;;
72686;Laerm;61365;52.162;4.500;2023-08-31T07:11:32;51.38;31.22;66.97;;
72686;Laerm;61365;52.162;4.500;2023-08-31T07:13:58;51.19;30.98;67.01;;
72686;Laerm;61365;52.162;4.500;2023-08-31T07:16:25;51.49;31.32;67.10;;
72686;Laerm;61365;52.162;4.500;2023-08-31T07:18:52;51.68;31.26;65.92;;
72686;Laerm;61365;52.162;4.500;2023-08-31T07:21:18;51.59;31.13;66.95;;
72686;Laerm;61365;52.162;4.500;2023-08-31T07:23:44;51.94;31.17;66.85;;
72686;Laerm;61365;52.162;4.500;2023-08-31T07:26:10;52.43;30.98;64.96;;
72686;Laerm;61365;52.162;4.500;2023-08-31T07:28:36;52.01;31.02;66.92;;
72686;Laerm;61365;52.162;4.500;2023-08-31T07:31:06;52.06;31.00;66.40;;
72686;Laerm;61365;52.162;4.500;2023-08-31T07:33:33;52.55;30.94;66.67;;
72686;Laerm;61365;52.162;4.500;2023-08-31T07:36:03;52.12;30.90;66.82;;
72686;Laerm;61365;52.162;4.500;2023-08-31T07:38:31;52.09;30.81;67.03;;
72686;Laerm;61365;52.162;4.500;2023-08-31T07:40:58;52.39;30.67;66.85;;
72686;Laerm;61365;52.162;4.500;2023-08-31T07:43:25;52.23;31.21;66.90;;
72686;Laerm;61365;52.162;4.500;2023-08-31T07:45:52;52.33;31.09;66.67;;
72686;Laerm;61365;52.162;4.500;2023-08-31T07:48:18;52.90;31.04;66.83;;
72686;Laerm;61365;52.162;4.500;2023-08-31T07:50:45;52.95;31.03;66.91;;
72686;Laerm;61365;52.162;4.500;2023-08-31T07:53:11;53.13;31.15;68.80;;
72686;Laerm;61365;52.162;4.500;2023-08-31T07:55:39;53.15;30.80;66.96;;
72686;Laerm;61365;52.162;4.500;2023-08-31T07:58:05;53.05;30.79;66.58;;
72686;Laerm;61365;52.162;4.500;2023-08-31T08:00:32;53.47;30.94;67.06;;
72686;Laerm;61365;52.162;4.500;2023-08-31T08:02:58;53.58;30.82;67.54;;
72686;Laerm;61365;52.162;4.500;2023-08-31T08:05:25;53.33;31.00;67.45;;
72686;Laerm;61365;52.162;4.500;2023-08-31T08:07:52;53.14;30.99;66.93;;
72686;Laerm;61365;52.162;4.500;2023-08-31T08:10:18;53.63;30.87;66.82;;
72686;Laerm;61365;52.162;4.500;2023-08-31T08:12:44;53.60;31.20;67.31;;
72686;Laerm;61365;52.162;4.500;2023-08-31T08:15:12;53.28;30.98;68.12;;
72686;Laerm;61365;52.162;4.500;2023-08-31T08:17:38;53.56;31.26;66.77;;
72686;Laerm;61365;52.162;4.500;2023-08-31T08:20:06;53.42;31.23;66.90;;
72686;Laerm;61365;52.162;4.500;2023-08-31T08:22:33;53.76;31.01;69.30;;
72686;Laerm;61365;52.162;4.500;2023-08-31T08:24:59;53.72;31.01;67.39;;
72686;Laerm;61365;52.162;4.500;2023-08-31T08:27:25;53.98;31.01;67.45;;
72686;Laerm;61365;52.162;4.500;2023-08-31T08:29:51;53.91;31.11;66.96;;
72686;Laerm;61365;52.162;4.500;2023-08-31T08:32:17;54.29;31.16;68.61;;
72686;Laerm;61365;52.162;4.500;2023-08-31T08:34:43;53.89;30.86;66.92;;
72686;Laerm;61365;52.162;4.500;2023-08-31T08:37:09;54.24;30.97;67.16;;
72686;Laerm;61365;52.162;4.500;2023-08-31T08:39:36;53.93;30.93;68.03;;
72686;Laerm;61365;52.162;4.500;2023-08-31T08:42:04;53.89;30.93;67.08;;
72686;Laerm;61365;52.162;4.500;2023-08-31T08:44:32;54.10;30.81;67.46;;
72686;Laerm;61365;52.162;4.500;2023-08-31T08:47:00;54.28;30.96;68.38;;
72686;Laerm;61365;52.162;4.500;2023-08-31T08:49:26;53.93;31.14;67.34;;
72686;Laerm;61365;52.162;4.500;2023-08-31T08:51:54;54.05;31.07;67.94;;
72686;Laerm;61365;52.162;4.500;2023-08-31T08:54:21;54.37;30.94;67.02;;
72686;Laerm;61365;52.162;4.500;2023-08-31T08:56:48;54.44;31.30;68.11;;
72686;Laerm;61365;52.162;4.500;2023-08-31T08:59:14;54.51;31.22;69.31;;
72686;Laerm;61365;52.162;4.500;2023-08-31T09:01:40;54.42;31.16;67.78;;
72686;Laerm;61365;52.162;4.500;2023-08-31T09:04:09;54.03;31.21;67.20;;
72686;Laerm;61365;52.162;4.500;2023-08-31T09:06:35;54.04;31.38;67.79;;
72686;Laerm;61365;52.162;4.500;2023-08-31T09:09:01;54.13;31.33;66.94;;
72686;Laerm;61365;52.162;4.500;2023-08-31T09:11:28;54.40;31.27;66.95;;
72686;Laerm;61365;52.162;4.500;2023-08-31T09:13:56;54.48;31.37;67.12;;
72686;Laerm;61365;52.162;4.500;2023-08-31T09:16:27;54.03;31.13;68.41;;
72686;Laerm;61365;52.162;4.500;2023-08-31T09:18:55;54.20;31.42;66.72;;
72686;Laerm;61365;52.162;4.500;2023-08-31T09:21:22;54.15;31.11;66.84;;
72686;Laerm;61365;52.162;4.500;2023-08-31T09:23:57;54.24;31.19;67.33;;
72686;Laerm;61365;52.162;4.500;2023-08-31T09:26:23;54.25;31.02;67.78;;
72686;Laerm;61365;52.162;4.500;2023-08-31T09:28:50;54.42;31.23;67.30;;
72686;Laerm;61365;52.162;4.500;2023-08-31T09:31:16;54.49;31.30;67.52;;
72686;Laerm;61365;52.162;4.500;2023-08-31T09:33:52;54.08;31.29;67.88;;
72686;Laerm;61365;52.162;4.500;2023-08-31T09:36:20;54.23;31.17;66.78;;
72686;Laerm;61365;52.162;4.500;2023-08-31T09:38:46;54.10;31.43;66.93;;
72686;Laerm;61365;52.162;4.500;2023-08-31T09:41:12;54.62;31.29;67.19;;
72686;Laerm;61365;52.162;4.500;2023-08-31T09:43:39;54.46;31.31;67.44;;
72686;Laerm;61365;52.162;4.500;2023-08-31T09:46:05;54.44;31.38;67.74;;
72686;Laerm;61365;52.162;4.500;2023-08-31T09:48:34;54.52;31.37;66.91;;
72686;Laerm;61365;52.162;4.500;2023-08-31T09:51:07;52.92;31.57;69.12;;
72686;Laerm;61365;52.162;4.500;2023-08-31T09:53:36;52.68;31.30;68.98;;
72686;Laerm;61365;52.162;4.500;2023-08-31T09:56:05;54.69;31.43;66.93;;
72686;Laerm;61365;52.162;4.500;2023-08-31T09:58:32;54.60;31.24;67.28;;
72686;Laerm;61365;52.162;4.500;2023-08-31T10:00:59;54.69;31.34;68.14;;
72686;Laerm;61365;52.162;4.500;2023-08-31T10:03:26;54.44;31.25;67.01;;
72686;Laerm;61365;52.162;4.500;2023-08-31T10:05:54;54.69;31.10;67.03;;
72686;Laerm;61365;52.162;4.500;2023-08-31T10:08:20;54.93;31.35;66.97;;
72686;Laerm;61365;52.162;4.500;2023-08-31T10:10:46;54.65;31.24;67.61;;
72686;Laerm;61365;52.162;4.500;2023-08-31T10:13:13;54.87;31.16;67.05;;
72686;Laerm;61365;52.162;4.500;2023-08-31T10:15:41;54.81;31.18;68.95;;
72686;Laerm;61365;52.162;4.500;2023-08-31T10:18:08;54.69;31.31;67.67;;
72686;Laerm;61365;52.162;4.500;2023-08-31T10:20:35;54.90;31.28;66.97;;
72686;Laerm;61365;52.162;4.500;2023-08-31T10:23:05;54.94;31.03;68.04;;
72686;Laerm;61365;52.162;4.500;2023-08-31T10:28:18;55.04;31.47;67.10;;
72686;Laerm;61365;52.162;4.500;2023-08-31T10:33:34;54.77;31.25;66.66;;
72686;Laerm;61365;52.162;4.500;2023-08-31T10:36:01;54.89;31.50;68.42;;
72686;Laerm;61365;52.162;4.500;2023-08-31T10:38:32;54.75;31.25;67.10;;
72686;Laerm;61365;52.162;4.500;2023-08-31T10:51:41;54.90;31.43;67.77;;
72686;Laerm;61365;52.162;4.500;2023-08-31T10:54:20;54.78;31.07;66.75;;
72686;Laerm;61365;52.162;4.500;2023-08-31T10:59:53;54.80;31.53;68.05;;
72686;Laerm;61365;52.162;4.500;2023-08-31T11:07:31;54.52;31.37;68.57;;
72686;Laerm;61365;52.162;4.500;2023-08-31T11:12:34;54.72;31.22;68.32;;
72686;Laerm;61365;52.162;4.500;2023-08-31T11:15:00;54.80;31.49;68.40;;
72686;Laerm;61365;52.162;4.500;2023-08-31T11:17:28;54.73;31.22;67.61;;
72686;Laerm;61365;52.162;4.500;2023-08-31T11:19:56;54.71;31.44;67.41;;
72686;Laerm;61365;52.162;4.500;2023-08-31T11:22:22;54.84;31.28;66.99;;
72686;Laerm;61365;52.162;4.500;2023-08-31T11:24:48;54.78;31.47;67.15;;
72686;Laerm;61365;52.162;4.500;2023-08-31T11:27:19;54.86;31.45;68.62;;
72686;Laerm;61365;52.162;4.500;2023-08-31T11:29:45;54.22;31.47;68.09;;
72686;Laerm;61365;52.162;4.500;2023-08-31T11:32:12;54.67;31.33;68.25;;
72686;Laerm;61365;52.162;4.500;2023-08-31T11:34:42;54.72;31.47;68.62;;
72686;Laerm;61365;52.162;4.500;2023-08-31T11:37:12;54.67;31.33;66.74;;
72686;Laerm;61365;52.162;4.500;2023-08-31T11:39:51;54.52;31.16;67.82;;
72686;Laerm;61365;52.162;4.500;2023-08-31T11:42:20;54.91;31.37;68.71;;
72686;Laerm;61365;52.162;4.500;2023-08-31T11:44:48;54.49;31.23;66.88;;
72686;Laerm;61365;52.162;4.500;2023-08-31T11:47:15;54.48;31.40;66.05;;
72686;Laerm;61365;52.162;4.500;2023-08-31T11:49:42;54.85;31.68;67.25;;
72686;Laerm;61365;52.162;4.500;2023-08-31T11:52:12;54.61;31.51;67.19;;
72686;Laerm;61365;52.162;4.500;2023-08-31T11:54:40;54.44;31.54;67.12;;
72686;Laerm;61365;52.162;4.500;2023-08-31T11:57:09;54.77;31.54;67.01;;
72686;Laerm;61365;52.162;4.500;2023-08-31T11:59:38;54.81;31.28;67.13;;
72686;Laerm;61365;52.162;4.500;2023-08-31T12:02:08;54.50;31.44;67.04;;
72686;Laerm;61365;52.162;4.500;2023-08-31T12:04:44;54.90;31.45;67.55;;
72686;Laerm;61365;52.162;4.500;2023-08-31T12:07:11;54.44;31.41;67.00;;
72686;Laerm;61365;52.162;4.500;2023-08-31T12:09:37;54.77;31.36;66.62;;
72686;Laerm;61365;52.162;4.500;2023-08-31T12:12:03;54.71;31.55;67.20;;
72686;Laerm;61365;52.162;4.500;2023-08-31T12:14:37;54.26;31.41;67.17;;
72686;Laerm;61365;52.162;4.500;2023-08-31T12:17:06;54.48;31.44;67.08;;
72686;Laerm;61365;52.162;4.500;2023-08-31T12:19:36;54.51;31.55;67.84;;
72686;Laerm;61365;52.162;4.500;2023-08-31T12:22:03;54.59;31.57;67.79;;
72686;Laerm;61365;52.162;4.500;2023-08-31T12:24:29;54.44;31.60;67.18;;
72686;Laerm;61365;52.162;4.500;2023-08-31T12:27:02;54.92;31.53;70.26;;
72686;Laerm;61365;52.162;4.500;2023-08-31T12:29:28;54.60;31.29;66.61;;
72686;Laerm;61365;52.162;4.500;2023-08-31T12:31:55;54.65;31.56;68.99;;
72686;Laerm;61365;52.162;4.500;2023-08-31T12:34:21;54.58;31.20;66.99;;
72686;Laerm;61365;52.162;4.500;2023-08-31T12:36:47;54.84;31.04;69.27;;
72686;Laerm;61365;52.162;4.500;2023-08-31T12:39:13;54.86;31.39;67.00;;
72686;Laerm;61365;52.162;4.500;2023-08-31T12:41:39;54.76;31.37;67.20;;
72686;Laerm;61365;52.162;4.500;2023-08-31T12:44:09;54.75;31.29;68.32;;
72686;Laerm;61365;52.162;4.500;2023-08-31T12:46:35;54.65;31.50;67.26;;
72686;Laerm;61365;52.162;4.500;2023-08-31T12:49:02;54.33;31.37;67.35;;
72686;Laerm;61365;52.162;4.500;2023-08-31T12:51:30;54.81;31.27;66.87;;
72686;Laerm;61365;52.162;4.500;2023-08-31T12:53:57;54.83;31.56;68.07;;
72686;Laerm;61365;52.162;4.500;2023-08-31T12:56:23;54.58;31.33;66.50;;
72686;Laerm;61365;52.162;4.500;2023-08-31T12:58:53;54.54;31.47;67.22;;
72686;Laerm;61365;52.162;4.500;2023-08-31T13:01:21;54.89;31.50;68.39;;
72686;Laerm;61365;52.162;4.500;2023-08-31T13:03:49;54.76;31.46;68.42;;
72686;Laerm;61365;52.162;4.500;2023-08-31T13:06:15;54.55;31.46;66.81;;
72686;Laerm;61365;52.162;4.500;2023-08-31T13:08:45;54.59;31.49;67.97;;
72686;Laerm;61365;52.162;4.500;2023-08-31T13:11:11;54.94;31.17;69.13;;
72686;Laerm;61365;52.162;4.500;2023-08-31T13:13:40;54.55;31.28;68.55;;
72686;Laerm;61365;52.162;4.500;2023-08-31T13:16:06;54.70;31.48;67.02;;
72686;Laerm;61365;52.162;4.500;2023-08-31T13:18:33;55.03;31.50;66.87;;
72686;Laerm;61365;52.162;4.500;2023-08-31T13:21:00;54.79;31.25;67.34;;
72686;Laerm;61365;52.162;4.500;2023-08-31T13:23:26;54.74;31.47;66.45;;
72686;Laerm;61365;52.162;4.500;2023-08-31T13:25:52;54.64;31.55;66.95;;
72686;Laerm;61365;52.162;4.500;2023-08-31T13:28:18;54.91;31.01;68.54;;
72686;Laerm;61365;52.162;4.500;2023-08-31T13:30:44;54.88;31.63;67.10;;
72686;Laerm;61365;52.162;4.500;2023-08-31T13:33:10;54.95;31.39;66.74;;
72686;Laerm;61365;52.162;4.500;2023-08-31T13:35:37;54.79;31.25;66.47;;
72686;Laerm;61365;52.162;4.500;2023-08-31T13:38:03;54.69;31.32;67.14;;
72686;Laerm;61365;52.162;4.500;2023-08-31T13:40:29;54.71;31.38;66.92;;
72686;Laerm;61365;52.162;4.500;2023-08-31T13:42:57;54.68;31.81;67.88;;
72686;Laerm;61365;52.162;4.500;2023-08-31T13:45:27;54.85;31.83;67.16;;
72686;Laerm;61365;52.162;4.500;2023-08-31T13:47:53;54.84;31.48;67.39;;
72686;Laerm;61365;52.162;4.500;2023-08-31T13:50:19;54.97;31.03;68.46;;
72686;Laerm;61365;52.162;4.500;2023-08-31T13:52:45;54.70;31.17;67.54;;
72686;Laerm;61365;52.162;4.500;2023-08-31T13:55:12;54.98;31.01;67.20;;
72686;Laerm;61365;52.162;4.500;2023-08-31T13:57:40;54.93;31.19;67.12;;
72686;Laerm;61365;52.162;4.500;2023-08-31T14:00:07;54.89;31.28;67.78;;
72686;Laerm;61365;52.162;4.500;2023-08-31T14:02:38;54.90;31.04;67.07;;
72686;Laerm;61365;52.162;4.500;2023-08-31T14:05:05;54.73;31.60;67.14;;
72686;Laerm;61365;52.162;4.500;2023-08-31T14:07:36;54.87;31.43;66.59;;
72686;Laerm;61365;52.162;4.500;2023-08-31T14:10:03;54.68;31.69;67.45;;
72686;Laerm;61365;52.162;4.500;2023-08-31T14:12:31;54.64;31.25;66.87;;